Time;durP1;ratioP1;P1;durP2;ratioP2;P2;SDS_P1;SDS_P2;PMS_P1;PMS_P2;Temp;Humidity;BMP_temperature;BMP_pressure;BME280_temperature;BME280_humidity;BME280_pressure;Samples;Min_cycle;Max_cycle;Signal;HPM_P1;HPM_P2
2021/08/06 00:01:54;;;;;;;6.55;3.00;;;18.70;83.70;;;;;;5003624;28;20515;-73
2021/08/06 00:04:20;;;;;;;7.38;2.80;;;18.70;83.90;;;;;;4997541;28;20417;-73
2021/08/06 00:06:45;;;;;;;5.50;3.03;;;18.70;84.00;;;;;;5014308;28;20471;-73
2021/08/06 00:09:11;;;;;;;7.68;2.72;;;18.80;84.00;;;;;;5005071;28;20165;-73
2021/08/06 00:11:37;;;;;;;5.72;2.85;;;18.70;84.30;;;;;;5008315;28;20033;-78
2021/08/06 00:14:03;;;;;;;5.18;2.80;;;18.70;84.30;;;;;;5002991;28;20500;-73
2021/08/06 00:16:29;;;;;;;6.13;2.80;;;18.70;84.30;;;;;;5008305;28;20056;-80
2021/08/06 00:18:54;;;;;;;5.70;2.90;;;18.80;84.40;;;;;;5005016;28;20030;-75
2021/08/06 00:21:20;;;;;;;6.18;3.03;;;18.70;84.40;;;;;;5016227;28;20401;-73
2021/08/06 00:23:46;;;;;;;4.53;2.47;;;18.80;84.80;;;;;;5008051;28;20416;-77
2021/08/06 00:26:12;;;;;;;6.40;3.08;;;18.80;85.30;;;;;;5014348;28;20033;-78
2021/08/06 00:28:40;;;;;;;5.60;3.20;;;18.80;85.60;;;;;;5022000;28;20036;-73
2021/08/06 00:31:05;;;;;;;6.03;3.10;;;18.70;85.80;;;;;;4999515;28;20038;-75
2021/08/06 00:33:31;;;;;;;5.15;2.70;;;18.70;86.10;;;;;;5022110;28;20060;-74
2021/08/06 00:35:57;;;;;;;6.00;2.63;;;18.70;86.30;;;;;;5000547;28;20046;-74
2021/08/06 00:38:23;;;;;;;5.00;2.90;;;18.60;86.70;;;;;;5028706;28;20029;-72
2021/08/06 00:40:48;;;;;;;5.57;3.03;;;18.60;86.90;;;;;;5023565;28;20535;-74
2021/08/06 00:43:14;;;;;;;7.78;3.03;;;18.60;87.00;;;;;;5017718;28;20486;-81
2021/08/06 00:45:41;;;;;;;8.68;4.05;;;18.50;87.10;;;;;;5003651;28;20047;-72
2021/08/06 00:48:07;;;;;;;9.57;4.15;;;18.50;87.60;;;;;;5003561;28;20037;-73
2021/08/06 00:50:33;;;;;;;4.93;2.60;;;18.50;87.90;;;;;;5008158;28;20258;-73
2021/08/06 00:52:59;;;;;;;5.10;2.42;;;18.30;88.00;;;;;;5002060;28;20541;-73
2021/08/06 00:55:25;;;;;;;5.72;2.70;;;18.30;88.10;;;;;;5005878;28;20045;-73
2021/08/06 00:57:50;;;;;;;7.20;2.75;;;18.20;88.00;;;;;;5009762;28;20389;-74
2021/08/06 01:00:16;;;;;;;6.95;3.13;;;18.20;88.00;;;;;;5017907;28;20388;-73
2021/08/06 01:03:17;;;;;;;6.97;3.20;;;18.10;88.10;;;;;;5002411;28;20096;-73
2021/08/06 01:05:48;;;;;;;6.10;2.70;;;18.10;87.70;;;;;;5002754;28;20037;-73
2021/08/06 01:08:34;;;;;;;5.30;2.72;;;18.10;88.00;;;;;;5004397;28;20038;-73
2021/08/06 01:11:03;;;;;;;4.75;2.53;;;18.10;88.20;;;;;;5015041;28;20053;-74
2021/08/06 01:13:48;;;;;;;6.30;2.63;;;18.10;88.30;;;;;;5000956;28;20031;-76
2021/08/06 01:16:14;;;;;;;5.95;2.58;;;18.10;88.30;;;;;;5012169;28;20782;-73
2021/08/06 01:18:52;;;;;;;4.38;2.40;;;18.00;88.40;;;;;;5017434;28;20030;-77
2021/08/06 01:21:20;;;;;;;6.70;2.92;;;18.10;88.60;;;;;;5007448;28;20037;-74
2021/08/06 01:23:47;;;;;;;4.95;2.83;;;18.00;88.50;;;;;;5003296;28;20085;-74
2021/08/06 01:26:17;;;;;;;6.35;2.83;;;18.00;88.60;;;;;;5034569;28;20033;-73
2021/08/06 01:28:47;;;;;;;5.10;2.70;;;18.00;88.70;;;;;;5030833;28;20064;-73
2021/08/06 01:31:15;;;;;;;5.57;2.85;;;18.00;88.80;;;;;;5037754;28;20512;-75
2021/08/06 01:33:42;;;;;;;5.35;2.78;;;18.00;88.70;;;;;;5036470;28;20059;-80
2021/08/06 01:36:08;;;;;;;6.65;3.15;;;18.00;88.60;;;;;;5031880;28;20045;-74
2021/08/06 01:38:33;;;;;;;6.22;2.72;;;17.90;88.70;;;;;;5038951;28;20052;-76
2021/08/06 01:41:32;;;;;;;6.25;3.00;;;18.00;88.80;;;;;;5035156;28;20059;-72
2021/08/06 01:44:07;;;;;;;5.55;2.88;;;18.00;88.80;;;;;;5035932;28;20048;-77
2021/08/06 01:46:50;;;;;;;7.55;3.22;;;17.90;88.70;;;;;;5037588;28;20034;-73
2021/08/06 01:49:31;;;;;;;6.20;3.00;;;17.90;88.90;;;;;;5026897;28;20041;-74
2021/08/06 01:52:03;;;;;;;6.72;3.33;;;17.90;89.00;;;;;;5034338;28;20082;-73
2021/08/06 01:54:31;;;;;;;6.80;3.45;;;17.80;88.90;;;;;;5000095;28;20038;-75
2021/08/06 01:56:57;;;;;;;7.88;3.70;;;17.90;89.10;;;;;;5018902;28;20061;-74
2021/08/06 01:59:25;;;;;;;7.07;3.50;;;17.80;89.30;;;;;;5012233;28;20129;-73
2021/08/06 02:01:52;;;;;;;6.85;3.28;;;17.90;89.30;;;;;;5009628;28;20159;-73
2021/08/06 02:04:18;;;;;;;8.02;3.70;;;17.90;89.20;;;;;;5012709;28;20124;-72
2021/08/06 02:06:44;;;;;;;7.72;3.33;;;17.80;89.40;;;;;;5008253;28;20121;-74
2021/08/06 02:09:15;;;;;;;7.03;3.70;;;17.70;89.30;;;;;;5004699;28;20038;-73
2021/08/06 02:11:41;;;;;;;7.20;3.45;;;17.80;89.50;;;;;;5007644;28;20386;-73
2021/08/06 02:14:07;;;;;;;8.95;3.28;;;17.80;89.40;;;;;;5005941;28;20034;-74
2021/08/06 02:16:33;;;;;;;8.27;3.65;;;17.70;89.30;;;;;;5009445;28;20072;-84
2021/08/06 02:19:00;;;;;;;7.90;3.40;;;17.70;89.40;;;;;;5003766;28;20038;-74
2021/08/06 02:21:32;;;;;;;5.97;3.30;;;17.70;89.20;;;;;;5024222;28;20133;-75
2021/08/06 02:24:05;;;;;;;7.13;3.50;;;17.70;89.50;;;;;;5004227;28;20050;-76
2021/08/06 02:26:34;;;;;;;6.78;3.28;;;17.70;89.50;;;;;;5002361;28;20034;-80
2021/08/06 02:29:15;;;;;;;7.10;3.30;;;17.70;89.60;;;;;;5006779;28;20052;-74
2021/08/06 02:31:43;;;;;;;6.28;3.22;;;17.70;89.50;;;;;;5035048;28;20034;-74
2021/08/06 02:34:10;;;;;;;7.25;3.40;;;17.70;89.60;;;;;;5032698;28;20030;-73
2021/08/06 02:36:36;;;;;;;9.25;3.05;;;17.70;89.50;;;;;;5031253;28;20473;-73
2021/08/06 02:39:12;;;;;;;5.07;2.85;;;17.70;89.50;;;;;;5020855;28;20041;-75
2021/08/06 02:41:37;;;;;;;8.20;3.40;;;17.70;89.70;;;;;;5027936;28;20120;-73
2021/08/06 02:44:03;;;;;;;6.47;3.47;;;17.70;89.80;;;;;;5030564;28;20124;-80
2021/08/06 02:46:29;;;;;;;6.15;3.70;;;17.70;89.70;;;;;;5032607;28;20034;-76
2021/08/06 02:48:55;;;;;;;6.40;3.50;;;17.60;89.80;;;;;;5030179;28;20032;-71
2021/08/06 02:51:21;;;;;;;8.25;4.65;;;17.60;90.00;;;;;;5021645;28;20412;-75
2021/08/06 02:53:46;;;;;;;8.32;3.40;;;17.60;89.90;;;;;;5034442;28;20033;-73
2021/08/06 02:56:12;;;;;;;9.48;3.85;;;17.60;89.90;;;;;;5027762;28;20481;-75
2021/08/06 02:58:37;;;;;;;8.52;3.97;;;17.60;89.90;;;;;;5037678;28;20038;-75
2021/08/06 03:01:03;;;;;;;7.55;3.97;;;17.60;89.90;;;;;;5027798;28;20111;-83
2021/08/06 03:03:29;;;;;;;5.82;4.03;;;17.60;89.90;;;;;;5020930;28;20035;-73
2021/08/06 03:05:55;;;;;;;7.38;3.58;;;17.60;89.80;;;;;;5028109;28;20424;-75
2021/08/06 03:08:20;;;;;;;7.82;3.80;;;17.60;89.80;;;;;;5027050;28;22556;-73
2021/08/06 03:10:46;;;;;;;6.97;3.28;;;17.50;89.80;;;;;;5026896;28;20480;-73
2021/08/06 03:13:11;;;;;;;7.68;3.53;;;17.60;89.80;;;;;;5024761;28;20092;-74
2021/08/06 03:15:37;;;;;;;7.72;3.47;;;17.60;89.80;;;;;;4999632;28;20085;-73
2021/08/06 03:18:03;;;;;;;6.20;3.17;;;17.50;89.70;;;;;;5001408;28;20088;-73
2021/08/06 03:20:29;;;;;;;5.82;3.13;;;17.50;89.70;;;;;;5002556;28;20401;-77
2021/08/06 03:22:54;;;;;;;6.00;3.25;;;17.50;89.70;;;;;;5013236;28;20099;-76
2021/08/06 03:25:20;;;;;;;6.80;3.60;;;17.50;89.70;;;;;;5002654;28;20747;-72
2021/08/06 03:27:46;;;;;;;5.40;2.92;;;17.60;89.60;;;;;;5014593;28;20038;-73
2021/08/06 03:30:13;;;;;;;9.10;3.75;;;17.50;89.60;;;;;;5012849;28;20091;-75
2021/08/06 03:32:40;;;;;;;6.28;3.50;;;17.50;89.60;;;;;;5015196;28;20500;-74
2021/08/06 03:35:07;;;;;;;8.10;3.45;;;17.50;89.60;;;;;;5006735;28;20026;-76
2021/08/06 03:37:34;;;;;;;7.80;3.40;;;17.50;89.60;;;;;;5023070;28;20055;-73
2021/08/06 03:39:59;;;;;;;6.97;3.13;;;17.50;89.70;;;;;;5026722;28;20033;-76
2021/08/06 03:42:25;;;;;;;6.63;3.25;;;17.40;89.70;;;;;;5025756;28;20638;-73
2021/08/06 03:44:51;;;;;;;8.43;3.78;;;17.40;89.60;;;;;;5028483;28;20053;-78
2021/08/06 03:47:16;;;;;;;6.40;3.08;;;17.40;89.70;;;;;;5029010;28;20045;-73
2021/08/06 03:49:42;;;;;;;7.85;4.15;;;17.40;89.60;;;;;;5032894;28;20034;-72
2021/08/06 03:52:08;;;;;;;6.22;3.20;;;17.40;89.50;;;;;;5032714;28;20040;-73
2021/08/06 03:54:34;;;;;;;8.73;3.30;;;17.30;89.60;;;;;;5026243;28;20103;-74
2021/08/06 03:56:59;;;;;;;8.75;3.72;;;17.30;89.60;;;;;;5031281;28;20038;-74
2021/08/06 03:59:25;;;;;;;7.18;3.65;;;17.30;89.60;;;;;;5018279;28;20050;-75
2021/08/06 04:01:51;;;;;;;9.50;3.40;;;17.20;89.60;;;;;;5030377;28;20042;-75
2021/08/06 04:04:17;;;;;;;6.53;3.38;;;17.20;89.80;;;;;;5020608;28;20042;-74
2021/08/06 04:06:42;;;;;;;8.77;3.75;;;17.30;89.80;;;;;;5033970;28;20025;-73
2021/08/06 04:09:08;;;;;;;13.07;4.03;;;17.30;89.80;;;;;;5020090;28;20033;-73
2021/08/06 04:11:34;;;;;;;11.90;4.00;;;17.40;89.80;;;;;;5012428;28;20037;-78
2021/08/06 04:13:59;;;;;;;9.93;3.63;;;17.30;89.60;;;;;;5022077;28;20061;-73
2021/08/06 04:16:25;;;;;;;8.50;3.50;;;17.30;89.50;;;;;;5019765;28;20046;-73
2021/08/06 04:18:51;;;;;;;10.40;3.65;;;17.30;89.40;;;;;;5004025;28;20035;-77
2021/08/06 04:21:17;;;;;;;10.40;4.35;;;17.20;89.20;;;;;;4998538;28;20037;-77
2021/08/06 04:23:43;;;;;;;7.00;3.30;;;17.30;89.20;;;;;;5003804;28;20054;-73
2021/08/06 04:26:09;;;;;;;8.10;3.65;;;17.30;89.30;;;;;;5017754;28;20049;-73
2021/08/06 04:28:35;;;;;;;8.55;3.42;;;17.30;89.20;;;;;;5030594;28;20896;-73
2021/08/06 04:31:02;;;;;;;9.38;3.50;;;17.20;89.20;;;;;;5037157;28;20147;-73
2021/08/06 04:33:28;;;;;;;9.43;3.50;;;17.30;89.20;;;;;;5032304;28;20033;-75
2021/08/06 04:35:54;;;;;;;9.63;3.75;;;17.30;89.10;;;;;;5026642;28;20494;-73
2021/08/06 04:38:19;;;;;;;8.07;3.17;;;17.30;89.10;;;;;;5026863;28;20030;-73
2021/08/06 04:40:45;;;;;;;11.00;4.20;;;17.30;88.90;;;;;;5028763;28;20550;-74
2021/08/06 04:43:12;;;;;;;10.30;4.22;;;17.30;88.90;;;;;;5028960;28;20045;-74
2021/08/06 04:45:38;;;;;;;9.43;4.03;;;17.30;88.70;;;;;;5029366;28;20491;-74
2021/08/06 04:48:04;;;;;;;10.65;3.75;;;17.30;88.80;;;;;;5029889;28;20040;-72
2021/08/06 04:50:30;;;;;;;9.77;4.03;;;17.30;89.00;;;;;;5024953;28;20575;-73
2021/08/06 04:52:56;;;;;;;12.43;3.65;;;17.30;89.00;;;;;;5030087;28;20040;-74
2021/08/06 04:55:25;;;;;;;8.70;3.80;;;17.40;88.80;;;;;;5034057;28;20041;-74
2021/08/06 04:57:51;;;;;;;11.57;3.60;;;17.50;88.60;;;;;;5031911;28;20117;-74
2021/08/06 05:00:18;;;;;;;8.80;3.70;;;17.40;88.40;;;;;;5032881;28;20050;-73
2021/08/06 05:02:45;;;;;;;10.05;3.75;;;17.40;88.30;;;;;;5018712;28;20043;-73
2021/08/06 05:05:11;;;;;;;10.95;3.78;;;17.50;88.00;;;;;;5025769;28;20041;-73
2021/08/06 05:07:37;;;;;;;8.98;3.55;;;17.50;88.30;;;;;;5021457;28;20041;-80
2021/08/06 05:10:04;;;;;;;9.20;3.70;;;17.50;88.10;;;;;;5022985;28;20050;-73
2021/08/06 05:12:29;;;;;;;9.70;4.28;;;17.50;88.20;;;;;;5020571;28;20474;-74
2021/08/06 05:14:55;;;;;;;9.52;3.95;;;17.50;88.00;;;;;;5021872;28;20048;-76
2021/08/06 05:17:21;;;;;;;14.32;3.78;;;17.50;88.00;;;;;;5021314;28;20104;-74
2021/08/06 05:19:47;;;;;;;11.73;3.90;;;17.50;87.80;;;;;;5028484;28;20052;-73
2021/08/06 05:22:12;;;;;;;10.90;3.58;;;17.60;87.90;;;;;;5025313;28;20041;-73
2021/08/06 05:24:38;;;;;;;9.85;3.90;;;17.50;87.60;;;;;;5024439;28;20049;-71
2021/08/06 05:27:04;;;;;;;17.88;4.22;;;17.60;87.50;;;;;;5029691;28;20357;-72
2021/08/06 05:29:30;;;;;;;9.57;3.75;;;17.60;87.50;;;;;;5029821;28;20041;-73
2021/08/06 05:31:56;;;;;;;11.15;4.15;;;17.70;87.20;;;;;;5025720;28;20057;-80
2021/08/06 05:34:21;;;;;;;12.55;3.55;;;17.80;86.90;;;;;;5028101;28;20119;-73
2021/08/06 05:36:47;;;;;;;10.95;3.67;;;17.90;86.60;;;;;;5023364;28;20481;-73
2021/08/06 05:39:13;;;;;;;9.32;4.18;;;18.10;85.70;;;;;;5016219;28;20342;-75
2021/08/06 05:41:38;;;;;;;12.70;4.00;;;18.20;85.40;;;;;;5024300;28;20503;-70
2021/08/06 05:44:05;;;;;;;9.77;3.88;;;18.30;84.80;;;;;;5027927;28;20037;-69
2021/08/06 05:46:30;;;;;;;10.13;3.95;;;18.30;84.80;;;;;;5023112;28;20041;-72
2021/08/06 05:48:56;;;;;;;8.35;4.32;;;18.50;84.70;;;;;;5027573;28;20034;-69
2021/08/06 05:51:22;;;;;;;11.50;4.10;;;18.30;84.80;;;;;;5002365;28;20034;-70
2021/08/06 05:53:47;;;;;;;11.85;3.90;;;18.30;84.40;;;;;;5006467;28;20461;-70
2021/08/06 05:56:13;;;;;;;10.32;4.07;;;18.30;84.50;;;;;;4991735;28;20035;-70
2021/08/06 05:58:41;;;;;;;13.30;4.28;;;18.30;84.20;;;;;;5004342;28;20033;-72
2021/08/06 06:01:06;;;;;;;11.43;4.50;;;18.30;84.40;;;;;;4997250;28;20030;-76
2021/08/06 06:03:32;;;;;;;9.50;3.95;;;18.40;84.10;;;;;;4993673;28;20057;-69
2021/08/06 06:05:58;;;;;;;10.18;3.67;;;18.40;84.00;;;;;;4991680;28;20062;-70
2021/08/06 06:08:23;;;;;;;9.55;3.80;;;18.30;84.10;;;;;;4999181;28;20393;-70
2021/08/06 06:10:49;;;;;;;7.57;3.10;;;18.40;83.90;;;;;;5004562;28;20041;-70
2021/08/06 06:13:14;;;;;;;15.57;3.97;;;18.40;83.80;;;;;;5008528;28;20059;-70
2021/08/06 06:15:40;;;;;;;8.68;3.10;;;18.40;84.00;;;;;;5004117;28;20522;-70
2021/08/06 06:18:08;;;;;;;7.70;3.28;;;18.60;84.00;;;;;;4999966;28;20049;-73
2021/08/06 06:20:33;;;;;;;10.60;3.90;;;18.70;83.20;;;;;;5025632;28;20116;-69
2021/08/06 06:22:59;;;;;;;9.50;3.10;;;18.80;82.10;;;;;;5029145;28;20116;-70
2021/08/06 06:25:24;;;;;;;10.80;3.10;;;18.70;82.70;;;;;;5033940;28;20378;-69
2021/08/06 06:28:09;;;;;;;9.25;3.63;;;18.50;82.60;;;;;;5046650;28;20052;-70
2021/08/06 06:30:36;;;;;;;10.55;3.10;;;18.40;82.70;;;;;;5029039;28;20072;-70
2021/08/06 06:33:03;;;;;;;9.48;3.00;;;18.30;83.20;;;;;;5032480;28;20029;-70
2021/08/06 06:35:30;;;;;;;9.38;3.20;;;18.30;83.20;;;;;;5028110;28;20033;-70
2021/08/06 06:37:56;;;;;;;7.45;2.83;;;18.20;83.30;;;;;;5027249;28;20092;-70
2021/08/06 06:40:25;;;;;;;6.88;2.90;;;18.30;83.70;;;;;;5026365;28;20045;-75
2021/08/06 06:42:50;;;;;;;10.68;2.95;;;18.30;83.70;;;;;;5025155;28;20034;-72
2021/08/06 06:45:17;;;;;;;10.65;3.25;;;18.40;83.30;;;;;;5017069;28;20045;-71
2021/08/06 06:47:51;;;;;;;13.55;3.25;;;18.40;82.60;;;;;;5022995;28;20026;-73
2021/08/06 06:50:24;;;;;;;8.63;3.17;;;18.50;82.80;;;;;;5029451;28;20034;-72
2021/08/06 06:52:50;;;;;;;10.85;2.88;;;18.40;83.00;;;;;;5023043;28;20034;-72
2021/08/06 06:55:16;;;;;;;9.23;2.55;;;18.40;82.80;;;;;;5024312;28;20112;-76
2021/08/06 06:57:49;;;;;;;11.10;3.40;;;18.40;83.00;;;;;;5021100;28;20167;-73
2021/08/06 07:00:15;;;;;;;8.25;3.95;;;18.50;83.30;;;;;;5019685;28;21041;-71
2021/08/06 07:02:41;;;;;;;9.88;2.78;;;18.60;82.70;;;;;;5016057;28;20053;-69
2021/08/06 07:05:08;;;;;;;9.85;3.08;;;18.60;82.60;;;;;;5017651;28;20110;-71
2021/08/06 07:07:34;;;;;;;7.55;2.70;;;18.60;82.20;;;;;;5020259;28;21034;-71
2021/08/06 07:10:00;;;;;;;8.52;3.22;;;18.60;81.90;;;;;;5017630;28;20469;-73
2021/08/06 07:12:25;;;;;;;8.35;2.70;;;18.70;82.50;;;;;;5006834;28;20034;-70
2021/08/06 07:14:51;;;;;;;8.88;2.88;;;18.90;81.90;;;;;;5000146;28;20073;-72
2021/08/06 07:17:17;;;;;;;6.72;2.85;;;19.10;80.80;;;;;;5006490;28;20120;-72
2021/08/06 07:19:42;;;;;;;8.73;2.92;;;19.10;81.00;;;;;;5000839;28;20029;-70
2021/08/06 07:22:08;;;;;;;6.75;2.80;;;19.20;80.80;;;;;;4993824;28;20042;-72
2021/08/06 07:24:34;;;;;;;8.13;3.63;;;19.40;80.10;;;;;;4999785;28;20054;-73
2021/08/06 07:26:59;;;;;;;7.70;3.20;;;19.70;79.30;;;;;;4996436;28;20134;-74
2021/08/06 07:29:25;;;;;;;7.68;2.95;;;20.20;77.60;;;;;;5003968;28;20056;-70
2021/08/06 07:31:51;;;;;;;10.32;3.42;;;20.40;77.10;;;;;;4998507;28;20393;-73
2021/08/06 07:34:16;;;;;;;8.00;3.33;;;20.60;75.90;;;;;;4999339;28;20410;-70
2021/08/06 07:36:42;;;;;;;7.30;2.97;;;20.50;75.40;;;;;;5016891;28;20038;-72
2021/08/06 07:39:08;;;;;;;9.30;2.90;;;20.70;74.90;;;;;;5022016;28;20022;-71
2021/08/06 07:41:34;;;;;;;8.82;3.17;;;20.70;74.70;;;;;;5019833;28;20029;-72
2021/08/06 07:43:59;;;;;;;9.30;2.58;;;21.00;74.80;;;;;;5022871;28;20041;-70
2021/08/06 07:46:25;;;;;;;5.63;2.67;;;20.80;74.00;;;;;;5015903;28;20038;-71
2021/08/06 07:48:51;;;;;;;7.85;3.13;;;20.80;75.00;;;;;;5017034;28;20586;-74
2021/08/06 07:51:17;;;;;;;14.20;3.08;;;20.60;75.70;;;;;;4998919;28;20030;-73
2021/08/06 07:53:42;;;;;;;6.90;3.10;;;20.30;75.20;;;;;;4999618;28;20082;-75
2021/08/06 07:56:08;;;;;;;9.90;3.65;;;20.20;75.80;;;;;;5004023;28;20481;-70
2021/08/06 07:58:34;;;;;;;8.35;3.08;;;20.00;76.50;;;;;;4998505;28;20128;-70
2021/08/06 08:01:00;;;;;;;5.15;3.10;;;20.00;77.00;;;;;;4992169;28;20418;-71
2021/08/06 08:03:25;;;;;;;7.78;3.20;;;20.10;76.80;;;;;;5008914;28;20095;-70
2021/08/06 08:05:51;;;;;;;6.10;2.88;;;20.00;76.80;;;;;;5007510;28;20041;-73
2021/08/06 08:08:17;;;;;;;6.55;3.10;;;20.00;76.50;;;;;;5012170;28;20552;-73
2021/08/06 08:10:42;;;;;;;8.30;3.13;;;20.00;76.50;;;;;;5012872;28;20054;-70
2021/08/06 08:13:08;;;;;;;9.25;3.30;;;19.90;76.50;;;;;;5003879;28;20121;-70
2021/08/06 08:15:34;;;;;;;6.07;3.05;;;19.70;76.40;;;;;;5009729;28;20449;-70
2021/08/06 08:18:00;;;;;;;5.95;2.78;;;19.60;77.50;;;;;;5001551;28;20041;-69
2021/08/06 08:20:25;;;;;;;9.32;2.70;;;19.50;77.60;;;;;;5009823;28;20029;-70
2021/08/06 08:22:51;;;;;;;5.38;2.70;;;19.40;77.30;;;;;;5005822;28;20042;-70
2021/08/06 08:25:17;;;;;;;7.63;3.00;;;19.30;78.10;;;;;;5017740;28;20057;-69
2021/08/06 08:27:42;;;;;;;5.70;2.40;;;19.20;78.00;;;;;;5022070;28;20077;-69
2021/08/06 08:30:08;;;;;;;6.60;2.47;;;19.10;78.60;;;;;;5016198;28;20087;-76
2021/08/06 08:32:35;;;;;;;4.65;2.20;;;19.00;78.80;;;;;;5005965;28;20034;-70
2021/08/06 08:35:01;;;;;;;5.97;2.30;;;19.00;79.00;;;;;;5008706;28;20057;-76
2021/08/06 08:37:26;;;;;;;5.18;2.03;;;19.00;79.40;;;;;;5031118;28;20033;-70
2021/08/06 08:39:52;;;;;;;7.90;3.40;;;19.10;79.20;;;;;;5028031;28;20064;-75
2021/08/06 08:42:21;;;;;;;6.82;2.47;;;19.20;79.00;;;;;;5020820;28;20045;-71
2021/08/06 08:44:48;;;;;;;8.00;2.50;;;19.40;78.30;;;;;;5024182;28;20025;-73
2021/08/06 08:47:17;;;;;;;6.68;2.70;;;19.50;78.00;;;;;;5021337;28;20041;-77
2021/08/06 08:49:44;;;;;;;7.20;2.20;;;19.60;77.40;;;;;;5021756;28;20034;-69
2021/08/06 08:52:10;;;;;;;5.40;2.25;;;19.80;76.20;;;;;;5020785;28;20061;-69
2021/08/06 08:54:37;;;;;;;4.47;2.00;;;20.10;75.80;;;;;;5018268;28;20380;-69
2021/08/06 08:57:03;;;;;;;6.55;1.80;;;20.10;75.30;;;;;;5015380;28;20030;-68
2021/08/06 08:59:29;;;;;;;6.57;2.25;;;20.30;74.70;;;;;;5022602;28;20048;-77
2021/08/06 09:01:55;;;;;;;6.30;1.83;;;20.40;73.80;;;;;;5021232;28;20029;-70
2021/08/06 09:04:30;;;;;;;3.95;1.70;;;20.40;74.10;;;;;;5013229;28;20045;-72
2021/08/06 09:06:58;;;;;;;5.15;1.92;;;20.20;73.90;;;;;;5018929;28;20042;-71
2021/08/06 09:09:26;;;;;;;5.43;2.13;;;20.00;74.40;;;;;;5012389;28;20040;-74
2021/08/06 09:12:09;;;;;;;6.65;2.20;;;20.00;74.20;;;;;;4996532;28;20041;-70
2021/08/06 09:14:36;;;;;;;11.77;1.85;;;20.00;75.10;;;;;;5015739;28;20037;-69
2021/08/06 09:17:12;;;;;;;4.88;1.88;;;20.10;74.60;;;;;;5020335;28;20511;-69
2021/08/06 09:19:43;;;;;;;5.90;1.80;;;20.20;74.30;;;;;;5016027;28;20033;-71
2021/08/06 09:22:17;;;;;;;5.95;1.90;;;20.30;73.70;;;;;;5019839;28;20389;-74
2021/08/06 09:25:04;;;;;;;3.08;1.63;;;20.50;72.30;;;;;;5025019;28;20045;-69
2021/08/06 09:27:32;;;;;;;5.15;2.28;;;20.60;72.20;;;;;;5018907;28;20045;-73
2021/08/06 09:29:59;;;;;;;5.28;2.00;;;20.80;71.80;;;;;;5025129;28;20029;-69
2021/08/06 09:32:43;;;;;;;4.97;1.77;;;20.70;71.20;;;;;;5018809;28;20602;-70
2021/08/06 09:35:13;;;;;;;6.03;2.33;;;20.70;71.20;;;;;;5009863;28;20423;-69
2021/08/06 09:37:39;;;;;;;4.75;1.88;;;20.70;71.10;;;;;;4992817;28;20504;-70
2021/08/06 09:40:16;;;;;;;4.97;1.85;;;20.80;71.10;;;;;;5005384;28;20038;-71
2021/08/06 09:43:00;;;;;;;6.93;2.33;;;21.10;71.20;;;;;;4994640;28;20046;-69
2021/08/06 09:45:36;;;;;;;7.55;1.55;;;21.50;70.10;;;;;;4998817;28;20397;-72
2021/08/06 09:48:02;;;;;;;4.68;1.58;;;21.90;68.70;;;;;;4998090;28;20038;-77
2021/08/06 09:50:43;;;;;;;5.95;1.88;;;21.80;68.50;;;;;;5002188;28;20808;-70
2021/08/06 09:53:10;;;;;;;4.63;2.00;;;21.70;68.20;;;;;;5001463;28;20500;-72
2021/08/06 09:55:40;;;;;;;8.15;1.95;;;21.50;68.30;;;;;;4998135;28;20084;-70
2021/08/06 09:58:12;;;;;;;7.88;1.90;;;21.50;68.40;;;;;;4999568;28;20125;-73
2021/08/06 10:00:40;;;;;;;6.13;1.90;;;21.30;69.20;;;;;;5008771;28;20041;-76
2021/08/06 10:03:06;;;;;;;9.30;2.15;;;21.10;69.60;;;;;;5023265;28;20041;-69
2021/08/06 10:05:32;;;;;;;6.13;1.95;;;20.90;70.80;;;;;;5023995;28;20026;-76
2021/08/06 10:08:01;;;;;;;4.90;1.83;;;20.90;70.30;;;;;;5021946;28;20033;-70
2021/08/06 10:10:31;;;;;;;3.72;1.70;;;21.10;70.10;;;;;;5024421;28;20858;-69
2021/08/06 10:12:58;;;;;;;5.32;1.45;;;21.10;68.60;;;;;;5017246;28;20034;-70
2021/08/06 10:15:25;;;;;;;11.40;1.85;;;21.10;68.60;;;;;;5023671;28;20045;-72
2021/08/06 10:17:52;;;;;;;5.35;1.50;;;21.10;68.80;;;;;;5020043;28;20041;-73
2021/08/06 10:20:25;;;;;;;4.78;1.75;;;21.20;67.90;;;;;;5022931;28;20160;-71
2021/08/06 10:22:52;;;;;;;3.53;1.30;;;21.40;68.20;;;;;;5011568;28;20469;-74
2021/08/06 10:25:19;;;;;;;5.45;1.60;;;21.60;67.20;;;;;;5005774;28;20134;-70
2021/08/06 10:27:48;;;;;;;5.13;1.70;;;21.80;66.70;;;;;;5007343;28;20029;-67
2021/08/06 10:30:20;;;;;;;6.40;2.05;;;21.60;66.10;;;;;;5011507;28;20037;-73
2021/08/06 10:33:04;;;;;;;4.65;1.40;;;21.80;67.30;;;;;;5006381;28;20046;-69
2021/08/06 10:35:40;;;;;;;4.25;1.30;;;21.60;67.60;;;;;;5003588;28;20088;-71
2021/08/06 10:38:05;;;;;;;4.68;1.70;;;21.70;67.50;;;;;;5003568;28;20051;-69
2021/08/06 10:40:38;;;;;;;6.60;1.40;;;22.10;66.70;;;;;;5004561;28;20042;-72
2021/08/06 10:43:10;;;;;;;4.70;1.20;;;22.60;66.40;;;;;;4999027;28;20129;-78
2021/08/06 10:45:47;;;;;;;4.55;1.30;;;22.70;64.10;;;;;;5002022;28;20050;-69
2021/08/06 10:48:31;;;;;;;5.03;1.40;;;22.60;64.40;;;;;;5007876;28;20460;-69
2021/08/06 10:51:18;;;;;;;5.30;1.60;;;22.60;64.30;;;;;;5003012;28;20034;-69
2021/08/06 10:53:56;;;;;;;4.70;1.52;;;22.30;64.90;;;;;;5005492;28;20289;-77
2021/08/06 10:56:25;;;;;;;3.38;1.10;;;22.10;65.90;;;;;;5005315;28;20054;-69
2021/08/06 10:58:52;;;;;;;3.78;1.20;;;22.10;66.50;;;;;;5011921;28;20392;-75
2021/08/06 11:04:05;;;;;;;3.65;1.70;;;21.60;66.20;;;;;;5015024;28;20053;-69
2021/08/06 11:06:36;;;;;;;6.90;1.50;;;21.40;67.00;;;;;;5013452;28;20080;-70
2021/08/06 11:09:03;;;;;;;4.85;1.45;;;21.10;68.50;;;;;;5014233;28;20061;-71
2021/08/06 11:12:03;;;;;;;4.13;1.40;;;21.00;68.50;;;;;;5027246;28;20033;-70
2021/08/06 11:14:29;;;;;;;5.93;1.52;;;21.10;69.50;;;;;;5004513;28;20036;-72
2021/08/06 11:17:14;;;;;;;7.60;2.03;;;21.60;67.80;;;;;;5026021;28;20041;-74
2021/08/06 11:19:48;;;;;;;7.78;1.85;;;21.70;66.00;;;;;;5026551;28;20033;-69
2021/08/06 11:22:16;;;;;;;6.65;2.22;;;21.70;66.70;;;;;;5017020;28;20038;-69
2021/08/06 11:24:48;;;;;;;6.40;1.60;;;21.50;65.40;;;;;;5021920;28;20050;-70
2021/08/06 11:27:15;;;;;;;6.15;1.58;;;21.60;64.90;;;;;;5024016;28;20109;-73
2021/08/06 11:29:43;;;;;;;8.90;1.80;;;21.80;64.80;;;;;;5029346;28;20591;-71
2021/08/06 11:32:11;;;;;;;5.50;1.90;;;21.90;65.00;;;;;;5022995;28;20037;-72
2021/08/06 11:34:49;;;;;;;6.72;1.83;;;22.00;64.90;;;;;;5036978;28;20048;-70
2021/08/06 11:37:15;;;;;;;5.57;1.40;;;22.30;63.70;;;;;;5032876;28;20539;-70
2021/08/06 11:40:05;;;;;;;5.60;1.63;;;22.50;63.60;;;;;;5035490;28;20029;-70
2021/08/06 11:42:31;;;;;;;6.95;1.67;;;22.40;63.50;;;;;;5029542;28;20033;-74
2021/08/06 11:44:57;;;;;;;3.97;1.27;;;22.50;62.80;;;;;;5023793;28;20409;-70
2021/08/06 11:47:41;;;;;;;4.95;1.92;;;22.90;62.40;;;;;;5023464;28;20101;-73
2021/08/06 11:50:09;;;;;;;4.45;1.80;;;23.00;62.00;;;;;;5027738;28;20056;-72
2021/08/06 11:52:40;;;;;;;4.53;1.40;;;23.10;60.90;;;;;;5029568;28;20098;-71
2021/08/06 11:55:07;;;;;;;5.72;1.95;;;23.40;62.00;;;;;;5028726;28;20060;-72
2021/08/06 11:57:46;;;;;;;5.40;1.52;;;23.30;60.70;;;;;;5024445;28;20042;-71
2021/08/06 12:00:20;;;;;;;8.48;1.63;;;23.20;61.20;;;;;;5023741;28;20059;-73
2021/08/06 12:02:46;;;;;;;7.35;1.83;;;23.60;60.80;;;;;;5030372;28;20037;-72
2021/08/06 12:05:24;;;;;;;3.72;1.40;;;23.70;59.90;;;;;;5025817;28;20038;-74
2021/08/06 12:07:50;;;;;;;5.25;1.45;;;23.60;60.10;;;;;;5029861;28;20478;-70
2021/08/06 12:10:16;;;;;;;5.63;1.40;;;24.00;60.10;;;;;;5022210;28;20034;-73
2021/08/06 12:12:42;;;;;;;4.25;1.30;;;23.80;59.10;;;;;;5023249;28;20037;-71
2021/08/06 12:15:22;;;;;;;4.45;1.70;;;23.70;59.30;;;;;;5027204;28;20040;-70
2021/08/06 12:18:07;;;;;;;5.22;1.50;;;23.40;59.80;;;;;;5020454;28;20069;-71
2021/08/06 12:20:39;;;;;;;5.63;1.63;;;23.30;60.40;;;;;;5022162;28;20034;-70
2021/08/06 12:23:05;;;;;;;6.55;1.45;;;23.30;60.70;;;;;;5019986;28;20060;-71
2021/08/06 12:25:32;;;;;;;4.75;1.52;;;23.50;60.60;;;;;;5019680;28;20336;-73
2021/08/06 12:28:00;;;;;;;6.05;1.50;;;23.60;60.80;;;;;;5032982;28;20064;-70
2021/08/06 12:30:28;;;;;;;6.95;1.90;;;23.80;59.50;;;;;;5024717;28;20084;-71
2021/08/06 12:32:54;;;;;;;5.95;1.48;;;24.00;59.80;;;;;;5025076;28;20036;-73
2021/08/06 12:35:21;;;;;;;7.50;1.67;;;24.30;59.20;;;;;;5023987;28;20033;-76
2021/08/06 12:37:46;;;;;;;5.78;1.88;;;24.50;57.90;;;;;;5013436;28;20500;-72
2021/08/06 12:40:13;;;;;;;6.47;1.70;;;24.60;57.80;;;;;;5030394;28;20037;-71
2021/08/06 12:42:39;;;;;;;7.40;1.60;;;24.80;57.10;;;;;;5020948;28;20485;-71
2021/08/06 12:45:15;;;;;;;8.25;2.25;;;24.80;56.90;;;;;;5023282;28;20053;-74
2021/08/06 12:47:52;;;;;;;4.55;1.70;;;24.60;57.20;;;;;;5022952;28;20041;-71
2021/08/06 12:50:29;;;;;;;6.32;2.25;;;24.60;58.50;;;;;;5020305;28;20043;-71
2021/08/06 12:53:10;;;;;;;6.90;1.90;;;25.00;57.60;;;;;;5023963;28;20065;-73
2021/08/06 12:55:37;;;;;;;3.55;1.52;;;25.10;55.90;;;;;;5021094;28;20117;-71